sensor_id;sensor_type;location;lat;lon;timestamp;P1;durP1;ratioP1;P2;durP2;ratioP2
60700;SDS011;46541;49.894;10.886;2023-01-10T00:00:24;4.25;;;2.03;;
60700;SDS011;46541;49.894;10.886;2023-01-10T00:02:52;1.40;;;0.70;;
60700;SDS011;46541;49.894;10.886;2023-01-10T00:05:19;1.92;;;0.75;;
60700;SDS011;46541;49.894;10.886;2023-01-10T00:07:46;3.03;;;0.70;;
60700;SDS011;46541;49.894;10.886;2023-01-10T00:10:13;4.03;;;1.00;;
60700;SDS011;46541;49.894;10.886;2023-01-10T00:12:40;2.08;;;1.02;;
60700;SDS011;46541;49.894;10.886;2023-01-10T00:15:30;2.33;;;0.95;;
60700;SDS011;46541;49.894;10.886;2023-01-10T00:17:58;1.95;;;0.82;;
60700;SDS011;46541;49.894;10.886;2023-01-10T00:20:25;4.78;;;1.20;;
60700;SDS011;46541;49.894;10.886;2023-01-10T00:22:51;2.28;;;1.15;;
60700;SDS011;46541;49.894;10.886;2023-01-10T00:25:18;2.60;;;2.28;;
60700;SDS011;46541;49.894;10.886;2023-01-10T00:27:46;4.35;;;2.28;;
60700;SDS011;46541;49.894;10.886;2023-01-10T00:30:32;4.75;;;1.42;;
60700;SDS011;46541;49.894;10.886;2023-01-10T00:33:00;2.75;;;1.10;;
60700;SDS011;46541;49.894;10.886;2023-01-10T00:35:27;4.22;;;1.08;;
60700;SDS011;46541;49.894;10.886;2023-01-10T00:37:54;2.38;;;1.33;;
60700;SDS011;46541;49.894;10.886;2023-01-10T00:40:26;5.90;;;1.88;;
60700;SDS011;46541;49.894;10.886;2023-01-10T00:42:53;4.07;;;1.05;;
60700;SDS011;46541;49.894;10.886;2023-01-10T00:45:38;5.32;;;1.08;;
60700;SDS011;46541;49.894;10.886;2023-01-10T00:48:04;6.57;;;1.50;;
60700;SDS011;46541;49.894;10.886;2023-01-10T00:50:31;1.80;;;1.05;;
60700;SDS011;46541;49.894;10.886;2023-01-10T00:52:58;1.88;;;1.05;;
60700;SDS011;46541;49.894;10.886;2023-01-10T00:55:25;3.50;;;1.33;;
60700;SDS011;46541;49.894;10.886;2023-01-10T00:57:51;3.40;;;1.05;;
60700;SDS011;46541;49.894;10.886;2023-01-10T01:00:18;3.15;;;1.02;;
60700;SDS011;46541;49.894;10.886;2023-01-10T01:02:45;1.58;;;0.82;;
60700;SDS011;46541;49.894;10.886;2023-01-10T01:05:13;2.80;;;1.20;;
60700;SDS011;46541;49.894;10.886;2023-01-10T01:07:40;3.28;;;0.80;;
60700;SDS011;46541;49.894;10.886;2023-01-10T01:10:07;1.52;;;0.88;;
60700;SDS011;46541;49.894;10.886;2023-01-10T01:12:53;8.70;;;2.57;;
60700;SDS011;46541;49.894;10.886;2023-01-10T01:15:21;4.03;;;1.55;;
60700;SDS011;46541;49.894;10.886;2023-01-10T01:17:48;5.57;;;2.00;;
60700;SDS011;46541;49.894;10.886;2023-01-10T01:20:15;3.55;;;1.20;;
60700;SDS011;46541;49.894;10.886;2023-01-10T01:22:42;3.30;;;1.42;;
60700;SDS011;46541;49.894;10.886;2023-01-10T01:25:08;5.47;;;1.15;;
60700;SDS011;46541;49.894;10.886;2023-01-10T01:27:35;7.80;;;2.33;;
60700;SDS011;46541;49.894;10.886;2023-01-10T01:30:06;4.43;;;1.98;;
60700;SDS011;46541;49.894;10.886;2023-01-10T01:32:34;8.13;;;4.05;;
60700;SDS011;46541;49.894;10.886;2023-01-10T01:35:01;5.68;;;1.30;;
60700;SDS011;46541;49.894;10.886;2023-01-10T01:37:28;3.35;;;1.27;;
60700;SDS011;46541;49.894;10.886;2023-01-10T01:39:54;3.67;;;1.05;;
60700;SDS011;46541;49.894;10.886;2023-01-10T01:42:31;1.17;;;0.70;;
60700;SDS011;46541;49.894;10.886;2023-01-10T01:53:34;2.58;;;1.35;;
60700;SDS011;46541;49.894;10.886;2023-01-10T01:56:11;3.95;;;1.30;;
60700;SDS011;46541;49.894;10.886;2023-01-10T01:58:47;2.00;;;0.85;;
60700;SDS011;46541;49.894;10.886;2023-01-10T02:01:34;4.25;;;1.42;;
60700;SDS011;46541;49.894;10.886;2023-01-10T02:04:07;4.47;;;1.15;;
60700;SDS011;46541;49.894;10.886;2023-01-10T02:06:38;1.25;;;0.82;;
60700;SDS011;46541;49.894;10.886;2023-01-10T02:09:28;1.88;;;0.80;;
60700;SDS011;46541;49.894;10.886;2023-01-10T02:11:57;4.22;;;1.00;;
60700;SDS011;46541;49.894;10.886;2023-01-10T02:14:24;1.10;;;0.80;;
60700;SDS011;46541;49.894;10.886;2023-01-10T02:16:51;2.92;;;1.00;;
60700;SDS011;46541;49.894;10.886;2023-01-10T02:27:53;3.22;;;1.10;;
60700;SDS011;46541;49.894;10.886;2023-01-10T02:33:22;1.83;;;1.05;;
60700;SDS011;46541;49.894;10.886;2023-01-10T02:35:59;2.65;;;1.20;;
60700;SDS011;46541;49.894;10.886;2023-01-10T02:41:15;2.38;;;1.17;;
60700;SDS011;46541;49.894;10.886;2023-01-10T02:43:49;2.22;;;1.20;;
60700;SDS011;46541;49.894;10.886;2023-01-10T02:46:21;2.50;;;0.95;;
60700;SDS011;46541;49.894;10.886;2023-01-10T02:48:53;4.25;;;1.23;;
60700;SDS011;46541;49.894;10.886;2023-01-10T02:51:21;2.95;;;1.20;;
60700;SDS011;46541;49.894;10.886;2023-01-10T02:54:05;2.40;;;1.13;;
60700;SDS011;46541;49.894;10.886;2023-01-10T03:02:09;4.60;;;1.48;;
60700;SDS011;46541;49.894;10.886;2023-01-10T03:05:35;2.17;;;1.40;;
60700;SDS011;46541;49.894;10.886;2023-01-10T03:10:38;2.75;;;1.23;;
60700;SDS011;46541;49.894;10.886;2023-01-10T03:13:18;3.53;;;1.60;;
60700;SDS011;46541;49.894;10.886;2023-01-10T03:15:49;1.23;;;1.02;;
60700;SDS011;46541;49.894;10.886;2023-01-10T03:18:21;2.10;;;1.25;;
60700;SDS011;46541;49.894;10.886;2023-01-10T03:20:52;3.20;;;1.30;;
60700;SDS011;46541;49.894;10.886;2023-01-10T03:23:21;3.38;;;1.40;;
60700;SDS011;46541;49.894;10.886;2023-01-10T03:25:49;1.92;;;1.00;;
60700;SDS011;46541;49.894;10.886;2023-01-10T03:28:20;4.47;;;1.58;;
60700;SDS011;46541;49.894;10.886;2023-01-10T03:33:28;2.92;;;1.48;;
60700;SDS011;46541;49.894;10.886;2023-01-10T03:36:08;3.65;;;1.25;;
60700;SDS011;46541;49.894;10.886;2023-01-10T03:38:55;1.52;;;1.02;;
60700;SDS011;46541;49.894;10.886;2023-01-10T03:41:38;5.13;;;1.60;;
60700;SDS011;46541;49.894;10.886;2023-01-10T03:49:56;4.15;;;2.13;;
60700;SDS011;46541;49.894;10.886;2023-01-10T03:52:44;1.13;;;1.00;;
60700;SDS011;46541;49.894;10.886;2023-01-10T03:55:12;1.40;;;1.05;;
60700;SDS011;46541;49.894;10.886;2023-01-10T03:57:43;1.23;;;1.08;;
60700;SDS011;46541;49.894;10.886;2023-01-10T04:00:14;1.80;;;1.10;;
60700;SDS011;46541;49.894;10.886;2023-01-10T04:02:41;3.33;;;1.48;;
60700;SDS011;46541;49.894;10.886;2023-01-10T04:05:09;2.72;;;1.25;;
60700;SDS011;46541;49.894;10.886;2023-01-10T04:07:36;2.83;;;1.10;;
60700;SDS011;46541;49.894;10.886;2023-01-10T04:10:04;3.78;;;1.50;;
60700;SDS011;46541;49.894;10.886;2023-01-10T04:12:31;1.13;;;1.00;;
60700;SDS011;46541;49.894;10.886;2023-01-10T04:14:58;3.90;;;1.40;;
60700;SDS011;46541;49.894;10.886;2023-01-10T04:17:26;2.63;;;1.13;;
60700;SDS011;46541;49.894;10.886;2023-01-10T04:19:53;2.15;;;1.00;;
60700;SDS011;46541;49.894;10.886;2023-01-10T04:22:20;4.13;;;1.30;;
60700;SDS011;46541;49.894;10.886;2023-01-10T04:24:46;2.22;;;1.40;;
60700;SDS011;46541;49.894;10.886;2023-01-10T04:27:16;3.03;;;1.25;;
60700;SDS011;46541;49.894;10.886;2023-01-10T04:29:43;2.35;;;1.30;;
60700;SDS011;46541;49.894;10.886;2023-01-10T04:32:10;2.30;;;1.10;;
60700;SDS011;46541;49.894;10.886;2023-01-10T04:34:36;2.38;;;1.02;;
60700;SDS011;46541;49.894;10.886;2023-01-10T04:37:03;6.15;;;1.88;;
60700;SDS011;46541;49.894;10.886;2023-01-10T04:39:30;2.85;;;1.40;;
60700;SDS011;46541;49.894;10.886;2023-01-10T04:41:56;2.30;;;1.17;;
60700;SDS011;46541;49.894;10.886;2023-01-10T04:44:23;4.82;;;2.05;;
60700;SDS011;46541;49.894;10.886;2023-01-10T04:46:50;3.50;;;1.60;;
60700;SDS011;46541;49.894;10.886;2023-01-10T04:49:17;2.05;;;1.25;;
60700;SDS011;46541;49.894;10.886;2023-01-10T04:51:43;3.25;;;1.30;;
60700;SDS011;46541;49.894;10.886;2023-01-10T04:54:10;3.47;;;1.48;;
60700;SDS011;46541;49.894;10.886;2023-01-10T04:56:37;2.50;;;1.50;;
60700;SDS011;46541;49.894;10.886;2023-01-10T04:59:03;3.10;;;1.25;;
60700;SDS011;46541;49.894;10.886;2023-01-10T05:01:31;4.15;;;1.30;;
60700;SDS011;46541;49.894;10.886;2023-01-10T05:04:00;3.00;;;1.65;;
60700;SDS011;46541;49.894;10.886;2023-01-10T05:06:28;2.70;;;1.27;;
60700;SDS011;46541;49.894;10.886;2023-01-10T05:08:55;2.10;;;1.38;;
60700;SDS011;46541;49.894;10.886;2023-01-10T05:11:22;3.95;;;1.38;;
60700;SDS011;46541;49.894;10.886;2023-01-10T05:13:49;2.83;;;1.00;;
60700;SDS011;46541;49.894;10.886;2023-01-10T05:16:16;1.55;;;1.17;;
60700;SDS011;46541;49.894;10.886;2023-01-10T05:18:43;4.43;;;1.45;;
60700;SDS011;46541;49.894;10.886;2023-01-10T05:21:11;3.47;;;1.40;;
60700;SDS011;46541;49.894;10.886;2023-01-10T05:23:39;4.70;;;1.25;;
60700;SDS011;46541;49.894;10.886;2023-01-10T05:26:07;3.08;;;1.60;;
60700;SDS011;46541;49.894;10.886;2023-01-10T05:28:36;2.38;;;1.60;;
60700;SDS011;46541;49.894;10.886;2023-01-10T05:31:07;1.45;;;1.23;;
60700;SDS011;46541;49.894;10.886;2023-01-10T05:33:36;3.95;;;1.55;;
60700;SDS011;46541;49.894;10.886;2023-01-10T05:36:03;4.90;;;1.98;;
60700;SDS011;46541;49.894;10.886;2023-01-10T05:38:31;4.72;;;1.40;;
60700;SDS011;46541;49.894;10.886;2023-01-10T05:40:58;2.90;;;1.60;;
60700;SDS011;46541;49.894;10.886;2023-01-10T05:43:26;2.00;;;1.52;;
60700;SDS011;46541;49.894;10.886;2023-01-10T05:45:53;2.95;;;1.38;;
60700;SDS011;46541;49.894;10.886;2023-01-10T05:48:20;6.38;;;1.83;;
60700;SDS011;46541;49.894;10.886;2023-01-10T05:50:50;5.35;;;1.60;;
60700;SDS011;46541;49.894;10.886;2023-01-10T05:53:17;4.93;;;1.70;;
60700;SDS011;46541;49.894;10.886;2023-01-10T05:56:18;5.32;;;1.83;;
60700;SDS011;46541;49.894;10.886;2023-01-10T05:58:37;4.28;;;2.10;;
60700;SDS011;46541;49.894;10.886;2023-01-10T06:01:04;4.38;;;2.13;;
60700;SDS011;46541;49.894;10.886;2023-01-10T06:03:31;5.40;;;1.67;;
60700;SDS011;46541;49.894;10.886;2023-01-10T06:05:58;4.05;;;1.88;;
60700;SDS011;46541;49.894;10.886;2023-01-10T06:08:24;5.03;;;2.13;;
60700;SDS011;46541;49.894;10.886;2023-01-10T06:10:51;4.93;;;2.25;;
60700;SDS011;46541;49.894;10.886;2023-01-10T06:13:18;4.13;;;2.03;;
60700;SDS011;46541;49.894;10.886;2023-01-10T06:15:44;3.67;;;2.00;;
60700;SDS011;46541;49.894;10.886;2023-01-10T06:18:12;6.60;;;2.47;;
60700;SDS011;46541;49.894;10.886;2023-01-10T06:20:39;8.52;;;2.22;;
60700;SDS011;46541;49.894;10.886;2023-01-10T06:23:09;3.97;;;2.30;;
60700;SDS011;46541;49.894;10.886;2023-01-10T06:25:36;5.32;;;2.33;;
60700;SDS011;46541;49.894;10.886;2023-01-10T06:28:06;2.63;;;1.75;;
60700;SDS011;46541;49.894;10.886;2023-01-10T06:30:33;4.80;;;2.13;;
60700;SDS011;46541;49.894;10.886;2023-01-10T06:33:01;6.30;;;2.30;;
60700;SDS011;46541;49.894;10.886;2023-01-10T06:35:28;3.28;;;2.25;;
60700;SDS011;46541;49.894;10.886;2023-01-10T06:37:56;5.18;;;2.75;;
60700;SDS011;46541;49.894;10.886;2023-01-10T06:40:23;4.13;;;2.45;;
60700;SDS011;46541;49.894;10.886;2023-01-10T06:42:50;3.28;;;1.55;;
60700;SDS011;46541;49.894;10.886;2023-01-10T06:45:17;3.70;;;2.30;;
60700;SDS011;46541;49.894;10.886;2023-01-10T06:47:45;4.75;;;2.40;;
60700;SDS011;46541;49.894;10.886;2023-01-10T06:50:12;3.05;;;2.10;;
60700;SDS011;46541;49.894;10.886;2023-01-10T06:52:39;3.55;;;1.80;;
60700;SDS011;46541;49.894;10.886;2023-01-10T06:55:07;4.45;;;1.48;;
60700;SDS011;46541;49.894;10.886;2023-01-10T06:57:34;4.13;;;1.90;;
60700;SDS011;46541;49.894;10.886;2023-01-10T07:00:01;2.50;;;1.63;;
60700;SDS011;46541;49.894;10.886;2023-01-10T07:02:33;6.18;;;3.40;;
60700;SDS011;46541;49.894;10.886;2023-01-10T07:05:00;4.88;;;2.40;;
60700;SDS011;46541;49.894;10.886;2023-01-10T07:07:27;7.07;;;2.80;;
60700;SDS011;46541;49.894;10.886;2023-01-10T07:09:54;6.32;;;2.38;;
60700;SDS011;46541;49.894;10.886;2023-01-10T07:12:21;3.95;;;1.83;;
60700;SDS011;46541;49.894;10.886;2023-01-10T07:14:48;8.40;;;3.35;;
60700;SDS011;46541;49.894;10.886;2023-01-10T07:17:14;4.43;;;2.17;;
60700;SDS011;46541;49.894;10.886;2023-01-10T07:19:41;3.03;;;1.83;;
60700;SDS011;46541;49.894;10.886;2023-01-10T07:22:08;7.82;;;2.55;;
60700;SDS011;46541;49.894;10.886;2023-01-10T07:24:34;5.13;;;1.80;;
60700;SDS011;46541;49.894;10.886;2023-01-10T07:27:01;8.80;;;2.08;;
60700;SDS011;46541;49.894;10.886;2023-01-10T07:29:28;4.00;;;1.60;;
60700;SDS011;46541;49.894;10.886;2023-01-10T07:31:55;7.97;;;1.80;;
60700;SDS011;46541;49.894;10.886;2023-01-10T07:34:21;4.15;;;1.83;;
60700;SDS011;46541;49.894;10.886;2023-01-10T07:36:48;3.05;;;1.95;;
60700;SDS011;46541;49.894;10.886;2023-01-10T07:39:15;3.22;;;2.10;;
60700;SDS011;46541;49.894;10.886;2023-01-10T07:41:41;7.82;;;3.33;;
60700;SDS011;46541;49.894;10.886;2023-01-10T07:44:08;8.77;;;3.08;;
60700;SDS011;46541;49.894;10.886;2023-01-10T07:46:35;5.47;;;2.72;;
60700;SDS011;46541;49.894;10.886;2023-01-10T07:49:01;7.20;;;3.17;;
60700;SDS011;46541;49.894;10.886;2023-01-10T07:51:28;6.22;;;2.72;;
60700;SDS011;46541;49.894;10.886;2023-01-10T07:53:55;10.63;;;4.28;;
60700;SDS011;46541;49.894;10.886;2023-01-10T07:56:22;13.10;;;4.30;;
60700;SDS011;46541;49.894;10.886;2023-01-10T07:58:49;8.32;;;3.78;;
60700;SDS011;46541;49.894;10.886;2023-01-10T08:01:15;9.65;;;3.58;;
60700;SDS011;46541;49.894;10.886;2023-01-10T08:03:42;13.35;;;5.57;;
60700;SDS011;46541;49.894;10.886;2023-01-10T08:06:09;9.93;;;4.68;;
60700;SDS011;46541;49.894;10.886;2023-01-10T08:08:36;10.40;;;4.78;;
60700;SDS011;46541;49.894;10.886;2023-01-10T08:11:04;32.03;;;12.43;;
60700;SDS011;46541;49.894;10.886;2023-01-10T08:13:31;22.92;;;8.40;;
60700;SDS011;46541;49.894;10.886;2023-01-10T08:15:58;69.90;;;25.33;;
60700;SDS011;46541;49.894;10.886;2023-01-10T08:18:25;83.68;;;28.35;;
60700;SDS011;46541;49.894;10.886;2023-01-10T08:20:53;37.15;;;15.30;;
60700;SDS011;46541;49.894;10.886;2023-01-10T08:23:20;12.88;;;5.32;;
60700;SDS011;46541;49.894;10.886;2023-01-10T08:25:47;12.93;;;4.90;;
60700;SDS011;46541;49.894;10.886;2023-01-10T08:28:15;6.78;;;3.65;;
60700;SDS011;46541;49.894;10.886;2023-01-10T08:30:42;7.13;;;4.00;;
60700;SDS011;46541;49.894;10.886;2023-01-10T08:33:09;11.02;;;3.78;;
60700;SDS011;46541;49.894;10.886;2023-01-10T08:35:37;10.55;;;3.80;;
60700;SDS011;46541;49.894;10.886;2023-01-10T08:38:09;8.70;;;3.05;;
60700;SDS011;46541;49.894;10.886;2023-01-10T08:40:36;6.68;;;3.03;;
60700;SDS011;46541;49.894;10.886;2023-01-10T08:43:04;6.25;;;2.63;;
60700;SDS011;46541;49.894;10.886;2023-01-10T08:45:33;7.57;;;2.35;;
60700;SDS011;46541;49.894;10.886;2023-01-10T08:48:00;5.22;;;2.13;;
60700;SDS011;46541;49.894;10.886;2023-01-10T08:50:27;5.68;;;3.08;;
60700;SDS011;46541;49.894;10.886;2023-01-10T08:52:58;15.95;;;5.85;;
60700;SDS011;46541;49.894;10.886;2023-01-10T08:55:25;8.98;;;3.03;;
60700;SDS011;46541;49.894;10.886;2023-01-10T08:57:53;7.93;;;2.90;;
60700;SDS011;46541;49.894;10.886;2023-01-10T09:00:20;6.70;;;2.70;;
60700;SDS011;46541;49.894;10.886;2023-01-10T09:02:47;6.72;;;3.38;;
60700;SDS011;46541;49.894;10.886;2023-01-10T09:05:14;6.65;;;2.75;;
60700;SDS011;46541;49.894;10.886;2023-01-10T09:07:56;9.95;;;4.60;;
60700;SDS011;46541;49.894;10.886;2023-01-10T09:10:25;12.95;;;4.80;;
60700;SDS011;46541;49.894;10.886;2023-01-10T09:12:56;8.20;;;3.80;;
60700;SDS011;46541;49.894;10.886;2023-01-10T09:15:26;6.03;;;2.60;;
60700;SDS011;46541;49.894;10.886;2023-01-10T09:17:59;6.10;;;1.98;;
60700;SDS011;46541;49.894;10.886;2023-01-10T09:20:27;5.40;;;1.98;;
60700;SDS011;46541;49.894;10.886;2023-01-10T09:22:55;5.80;;;2.00;;
60700;SDS011;46541;49.894;10.886;2023-01-10T09:25:23;8.27;;;2.20;;
60700;SDS011;46541;49.894;10.886;2023-01-10T09:27:57;7.78;;;2.00;;
60700;SDS011;46541;49.894;10.886;2023-01-10T09:30:26;5.10;;;1.67;;
60700;SDS011;46541;49.894;10.886;2023-01-10T09:32:54;4.85;;;2.10;;
60700;SDS011;46541;49.894;10.886;2023-01-10T09:35:22;2.90;;;1.42;;
60700;SDS011;46541;49.894;10.886;2023-01-10T09:37:53;8.35;;;2.35;;
60700;SDS011;46541;49.894;10.886;2023-01-10T09:43:44;11.07;;;2.40;;
60700;SDS011;46541;49.894;10.886;2023-01-10T09:46:33;16.13;;;3.50;;
60700;SDS011;46541;49.894;10.886;2023-01-10T09:49:21;6.07;;;2.58;;
60700;SDS011;46541;49.894;10.886;2023-01-10T09:51:51;6.57;;;2.08;;
60700;SDS011;46541;49.894;10.886;2023-01-10T09:54:27;12.50;;;2.83;;
60700;SDS011;46541;49.894;10.886;2023-01-10T09:56:57;4.82;;;2.67;;
60700;SDS011;46541;49.894;10.886;2023-01-10T09:59:30;7.40;;;3.40;;
60700;SDS011;46541;49.894;10.886;2023-01-10T10:07:29;7.50;;;2.55;;
60700;SDS011;46541;49.894;10.886;2023-01-10T10:09:56;8.15;;;2.42;;
60700;SDS011;46541;49.894;10.886;2023-01-10T10:18:09;8.18;;;3.33;;
60700;SDS011;46541;49.894;10.886;2023-01-10T10:20:55;9.45;;;3.55;;
60700;SDS011;46541;49.894;10.886;2023-01-10T10:28:52;10.25;;;3.40;;
60700;SDS011;46541;49.894;10.886;2023-01-10T10:32:03;10.38;;;3.13;;
60700;SDS011;46541;49.894;10.886;2023-01-10T10:34:47;5.85;;;2.28;;
60700;SDS011;46541;49.894;10.886;2023-01-10T10:37:26;7.53;;;2.42;;
60700;SDS011;46541;49.894;10.886;2023-01-10T10:40:02;5.28;;;1.90;;
60700;SDS011;46541;49.894;10.886;2023-01-10T10:42:41;8.95;;;2.30;;
60700;SDS011;46541;49.894;10.886;2023-01-10T10:48:11;9.32;;;4.55;;
60700;SDS011;46541;49.894;10.886;2023-01-10T10:53:27;9.52;;;3.38;;
60700;SDS011;46541;49.894;10.886;2023-01-10T10:55:56;6.75;;;2.83;;
60700;SDS011;46541;49.894;10.886;2023-01-10T10:58:24;5.90;;;2.28;;
60700;SDS011;46541;49.894;10.886;2023-01-10T11:00:51;11.52;;;4.15;;
60700;SDS011;46541;49.894;10.886;2023-01-10T11:03:23;8.00;;;2.00;;
60700;SDS011;46541;49.894;10.886;2023-01-10T11:06:15;5.03;;;2.30;;
60700;SDS011;46541;49.894;10.886;2023-01-10T11:08:45;10.73;;;3.53;;
60700;SDS011;46541;49.894;10.886;2023-01-10T11:11:24;5.22;;;2.63;;
60700;SDS011;46541;49.894;10.886;2023-01-10T11:14:01;20.13;;;9.88;;
60700;SDS011;46541;49.894;10.886;2023-01-10T11:16:30;11.68;;;4.90;;
60700;SDS011;46541;49.894;10.886;2023-01-10T11:24:26;9.82;;;2.28;;
60700;SDS011;46541;49.894;10.886;2023-01-10T11:27:03;6.45;;;1.45;;
60700;SDS011;46541;49.894;10.886;2023-01-10T11:29:46;8.95;;;2.67;;
60700;SDS011;46541;49.894;10.886;2023-01-10T11:32:16;7.90;;;2.25;;
60700;SDS011;46541;49.894;10.886;2023-01-10T11:34:51;9.05;;;2.58;;
60700;SDS011;46541;49.894;10.886;2023-01-10T11:37:25;5.45;;;2.67;;
60700;SDS011;46541;49.894;10.886;2023-01-10T11:42:45;6.57;;;1.92;;
60700;SDS011;46541;49.894;10.886;2023-01-10T11:47:43;7.82;;;1.65;;
60700;SDS011;46541;49.894;10.886;2023-01-10T11:50:11;4.68;;;2.00;;
60700;SDS011;46541;49.894;10.886;2023-01-10T11:52:43;7.03;;;2.08;;
60700;SDS011;46541;49.894;10.886;2023-01-10T11:55:16;4.07;;;1.52;;
60700;SDS011;46541;49.894;10.886;2023-01-10T11:58:06;7.38;;;1.70;;
60700;SDS011;46541;49.894;10.886;2023-01-10T12:00:44;5.70;;;2.45;;
60700;SDS011;46541;49.894;10.886;2023-01-10T12:03:31;17.80;;;3.78;;
60700;SDS011;46541;49.894;10.886;2023-01-10T12:06:03;14.82;;;2.78;;
60700;SDS011;46541;49.894;10.886;2023-01-10T12:08:34;12.15;;;2.92;;
60700;SDS011;46541;49.894;10.886;2023-01-10T12:11:04;8.13;;;2.00;;
60700;SDS011;46541;49.894;10.886;2023-01-10T12:13:45;8.98;;;2.13;;
60700;SDS011;46541;49.894;10.886;2023-01-10T12:16:23;8.10;;;2.35;;
60700;SDS011;46541;49.894;10.886;2023-01-10T12:18:54;6.85;;;2.78;;
60700;SDS011;46541;49.894;10.886;2023-01-10T12:21:26;9.00;;;2.78;;
60700;SDS011;46541;49.894;10.886;2023-01-10T12:23:55;10.02;;;2.22;;
60700;SDS011;46541;49.894;10.886;2023-01-10T12:26:26;7.28;;;2.60;;
60700;SDS011;46541;49.894;10.886;2023-01-10T12:28:56;9.73;;;2.28;;
60700;SDS011;46541;49.894;10.886;2023-01-10T12:31:26;16.98;;;2.50;;
60700;SDS011;46541;49.894;10.886;2023-01-10T12:33:58;9.23;;;1.88;;
60700;SDS011;46541;49.894;10.886;2023-01-10T12:36:35;10.15;;;1.98;;
60700;SDS011;46541;49.894;10.886;2023-01-10T12:39:18;8.63;;;1.92;;
60700;SDS011;46541;49.894;10.886;2023-01-10T12:44:50;6.72;;;1.83;;
60700;SDS011;46541;49.894;10.886;2023-01-10T12:48:01;5.20;;;2.45;;
60700;SDS011;46541;49.894;10.886;2023-01-10T12:50:40;12.52;;;2.38;;
60700;SDS011;46541;49.894;10.886;2023-01-10T12:55:55;9.85;;;3.05;;
60700;SDS011;46541;49.894;10.886;2023-01-10T12:58:59;6.70;;;2.05;;
60700;SDS011;46541;49.894;10.886;2023-01-10T13:01:30;12.40;;;2.35;;
60700;SDS011;46541;49.894;10.886;2023-01-10T13:04:11;7.63;;;2.08;;
60700;SDS011;46541;49.894;10.886;2023-01-10T13:06:41;8.15;;;2.03;;
60700;SDS011;46541;49.894;10.886;2023-01-10T13:09:15;8.27;;;1.77;;
60700;SDS011;46541;49.894;10.886;2023-01-10T13:14:17;10.18;;;2.00;;
60700;SDS011;46541;49.894;10.886;2023-01-10T13:17:36;5.78;;;1.75;;
60700;SDS011;46541;49.894;10.886;2023-01-10T13:22:42;10.05;;;2.33;;
60700;SDS011;46541;49.894;10.886;2023-01-10T13:28:37;5.22;;;1.83;;
60700;SDS011;46541;49.894;10.886;2023-01-10T13:30:40;6.32;;;1.90;;
60700;SDS011;46541;49.894;10.886;2023-01-10T13:33:19;9.65;;;2.08;;
60700;SDS011;46541;49.894;10.886;2023-01-10T13:36:08;18.42;;;2.55;;
60700;SDS011;46541;49.894;10.886;2023-01-10T13:38:38;9.10;;;2.38;;
60700;SDS011;46541;49.894;10.886;2023-01-10T13:41:15;15.13;;;2.30;;
60700;SDS011;46541;49.894;10.886;2023-01-10T13:46:42;7.72;;;2.28;;
60700;SDS011;46541;49.894;10.886;2023-01-10T13:51:37;10.23;;;2.30;;
60700;SDS011;46541;49.894;10.886;2023-01-10T13:56:43;8.55;;;2.40;;
60700;SDS011;46541;49.894;10.886;2023-01-10T14:01:44;9.38;;;1.85;;
60700;SDS011;46541;49.894;10.886;2023-01-10T14:04:36;5.20;;;2.03;;
60700;SDS011;46541;49.894;10.886;2023-01-10T14:07:26;9.70;;;4.07;;
60700;SDS011;46541;49.894;10.886;2023-01-10T14:10:08;10.68;;;2.75;;
60700;SDS011;46541;49.894;10.886;2023-01-10T14:13:02;10.23;;;3.67;;
60700;SDS011;46541;49.894;10.886;2023-01-10T14:15:37;10.65;;;2.33;;
60700;SDS011;46541;49.894;10.886;2023-01-10T14:18:14;13.18;;;3.42;;
60700;SDS011;46541;49.894;10.886;2023-01-10T14:20:44;10.20;;;2.22;;
60700;SDS011;46541;49.894;10.886;2023-01-10T14:23:28;9.85;;;2.33;;
60700;SDS011;46541;49.894;10.886;2023-01-10T14:26:25;7.15;;;2.30;;
60700;SDS011;46541;49.894;10.886;2023-01-10T14:29:05;12.52;;;2.22;;
60700;SDS011;46541;49.894;10.886;2023-01-10T14:31:37;9.20;;;2.05;;
60700;SDS011;46541;49.894;10.886;2023-01-10T14:34:09;6.93;;;2.00;;
60700;SDS011;46541;49.894;10.886;2023-01-10T14:36:45;12.88;;;4.38;;
60700;SDS011;46541;49.894;10.886;2023-01-10T14:39:22;9.95;;;2.90;;
60700;SDS011;46541;49.894;10.886;2023-01-10T14:41:51;9.00;;;2.95;;
60700;SDS011;46541;49.894;10.886;2023-01-10T14:45:07;16.20;;;2.90;;
60700;SDS011;46541;49.894;10.886;2023-01-10T14:47:30;17.70;;;3.33;;
60700;SDS011;46541;49.894;10.886;2023-01-10T14:49:58;10.82;;;3.65;;
60700;SDS011;46541;49.894;10.886;2023-01-10T14:52:29;21.33;;;8.68;;
60700;SDS011;46541;49.894;10.886;2023-01-10T14:57:35;9.73;;;3.42;;
60700;SDS011;46541;49.894;10.886;2023-01-10T15:00:12;13.50;;;5.47;;
60700;SDS011;46541;49.894;10.886;2023-01-10T15:02:46;33.50;;;12.63;;
60700;SDS011;46541;49.894;10.886;2023-01-10T15:05:17;15.20;;;4.85;;
60700;SDS011;46541;49.894;10.886;2023-01-10T15:07:54;13.93;;;3.55;;
60700;SDS011;46541;49.894;10.886;2023-01-10T15:10:40;13.35;;;3.78;;
60700;SDS011;46541;49.894;10.886;2023-01-10T15:13:11;18.48;;;7.70;;
60700;SDS011;46541;49.894;10.886;2023-01-10T15:15:40;16.63;;;3.90;;
60700;SDS011;46541;49.894;10.886;2023-01-10T15:18:21;6.63;;;2.78;;
60700;SDS011;46541;49.894;10.886;2023-01-10T15:20:52;14.95;;;3.80;;
60700;SDS011;46541;49.894;10.886;2023-01-10T15:23:20;12.55;;;3.67;;
60700;SDS011;46541;49.894;10.886;2023-01-10T15:25:58;13.85;;;7.18;;
60700;SDS011;46541;49.894;10.886;2023-01-10T15:28:27;12.10;;;3.28;;
60700;SDS011;46541;49.894;10.886;2023-01-10T15:30:55;8.32;;;3.50;;
60700;SDS011;46541;49.894;10.886;2023-01-10T15:33:26;11.90;;;3.22;;
60700;SDS011;46541;49.894;10.886;2023-01-10T15:35:56;8.45;;;2.47;;
60700;SDS011;46541;49.894;10.886;2023-01-10T15:38:28;13.07;;;5.40;;
60700;SDS011;46541;49.894;10.886;2023-01-10T15:40:59;25.27;;;9.52;;
60700;SDS011;46541;49.894;10.886;2023-01-10T15:43:34;17.15;;;5.80;;
60700;SDS011;46541;49.894;10.886;2023-01-10T15:46:03;15.40;;;5.22;;
60700;SDS011;46541;49.894;10.886;2023-01-10T15:48:40;11.15;;;4.65;;
60700;SDS011;46541;49.894;10.886;2023-01-10T15:54:03;12.10;;;3.50;;
60700;SDS011;46541;49.894;10.886;2023-01-10T16:01:56;13.77;;;4.00;;
60700;SDS011;46541;49.894;10.886;2023-01-10T16:04:32;15.85;;;6.30;;
60700;SDS011;46541;49.894;10.886;2023-01-10T16:07:04;13.00;;;5.22;;
60700;SDS011;46541;49.894;10.886;2023-01-10T16:09:34;12.30;;;4.22;;
60700;SDS011;46541;49.894;10.886;2023-01-10T16:12:01;16.13;;;4.38;;
60700;SDS011;46541;49.894;10.886;2023-01-10T16:14:46;21.67;;;3.55;;
60700;SDS011;46541;49.894;10.886;2023-01-10T16:17:13;10.43;;;3.50;;
60700;SDS011;46541;49.894;10.886;2023-01-10T16:19:40;16.67;;;4.05;;
60700;SDS011;46541;49.894;10.886;2023-01-10T16:22:07;9.20;;;3.42;;
60700;SDS011;46541;49.894;10.886;2023-01-10T16:24:37;15.52;;;4.20;;
60700;SDS011;46541;49.894;10.886;2023-01-10T16:27:08;14.23;;;3.58;;
60700;SDS011;46541;49.894;10.886;2023-01-10T16:29:35;15.73;;;3.25;;
60700;SDS011;46541;49.894;10.886;2023-01-10T16:32:08;11.55;;;3.20;;
60700;SDS011;46541;49.894;10.886;2023-01-10T16:34:39;12.70;;;4.25;;
60700;SDS011;46541;49.894;10.886;2023-01-10T16:37:06;15.93;;;3.63;;
60700;SDS011;46541;49.894;10.886;2023-01-10T16:39:33;11.07;;;3.05;;
60700;SDS011;46541;49.894;10.886;2023-01-10T16:42:00;10.00;;;3.22;;
60700;SDS011;46541;49.894;10.886;2023-01-10T16:44:45;13.98;;;4.72;;
60700;SDS011;46541;49.894;10.886;2023-01-10T16:47:12;14.13;;;4.00;;